Brewster, Colorado
Current Conditions -  °F | °C
As of 11:55 PM on Sunday 23 Nov 2014 (Local Time) from K1V6 Reporting Station
Clear Clear  
Wind Chill: 19°   Ceiling: Unl
Heat Index: 27°   Visibility: 10mi
Dew Point: 14°   Wind: 7mph
Humidity: 59%   Direction: 270°W
Pressure: 29.95"   Gusts: NA
Location:  38.3191°N, 105.161°W
Report Text: K1V6 240655Z AUTO 27006KT 10SM CLR M03/M10 A2995 RMK AO2
Loading
Personal Weather Stations






























Interactive Weather Map New forecast layout! Learn more

10-Day Weather Forecast

Advertisements
Track Severe Weather on mobile